Time;durP1;ratioP1;P1;durP2;ratioP2;P2;SDS_P1;SDS_P2;PMS_P1;PMS_P2;Temp;Humidity;BMP_temperature;BMP_pressure;BME280_temperature;BME280_humidity;BME280_pressure;Samples;Min_cycle;Max_cycle;Signal;HPM_P1;HPM_P2
2023/09/30 00:02:50;;;;;;;24.98;11.20;;;;;;;9.03;nan;102213.97;10359833;28;20452;-76
2023/09/30 00:07:50;;;;;;;30.20;11.52;;;;;;;9.12;nan;102214.66;10362394;28;20092;-76
2023/09/30 00:12:51;;;;;;;23.52;10.05;;;;;;;9.18;nan;102206.34;10362549;28;20505;-76
2023/09/30 00:17:51;;;;;;;26.48;11.00;;;;;;;9.21;nan;102225.81;10345549;28;20048;-77
2023/09/30 00:22:52;;;;;;;26.23;12.00;;;;;;;9.17;nan;102239.44;10357312;28;20784;-76
2023/09/30 00:27:52;;;;;;;31.60;11.60;;;;;;;9.22;nan;102229.31;10360368;28;20042;-78
2023/09/30 00:32:52;;;;;;;24.10;12.40;;;;;;;9.32;nan;102223.97;10330645;28;20042;-76
2023/09/30 00:37:53;;;;;;;24.80;14.43;;;;;;;9.38;nan;102229.66;10342606;28;20030;-77
2023/09/30 00:42:53;;;;;;;25.70;11.75;;;;;;;9.36;nan;102241.69;10359292;28;20079;-77
2023/09/30 00:47:54;;;;;;;29.25;12.50;;;;;;;9.34;nan;102238.06;10371049;28;20095;-77
2023/09/30 00:52:55;;;;;;;26.30;11.38;;;;;;;9.39;nan;102218.41;10326295;28;20121;-78
2023/09/30 00:57:56;;;;;;;23.33;12.20;;;;;;;9.42;nan;102225.59;10331057;28;20037;-76
2023/09/30 01:02:59;;;;;;;26.67;12.68;;;;;;;9.29;nan;102228.97;10358802;28;20076;-77
2023/09/30 01:08:02;;;;;;;31.83;10.93;;;;;;;9.29;nan;102249.88;10341930;28;20042;-77
2023/09/30 01:13:03;;;;;;;25.90;12.73;;;;;;;9.28;nan;102244.53;10350262;28;20069;-76
2023/09/30 01:18:04;;;;;;;26.55;10.98;;;;;;;9.28;nan;102240.22;10354569;28;20167;-77
2023/09/30 01:23:04;;;;;;;29.80;13.10;;;;;;;9.30;nan;102242.97;10341971;28;20037;-77
2023/09/30 01:28:08;;;;;;;20.38;10.90;;;;;;;9.22;nan;102235.47;10359169;28;20132;-77
2023/09/30 01:33:08;;;;;;;27.17;9.95;;;;;;;9.11;nan;102250.31;10356304;28;20115;-77
2023/09/30 01:38:09;;;;;;;33.88;13.15;;;;;;;8.96;nan;102260.50;10358997;28;20129;-76
2023/09/30 01:43:10;;;;;;;24.05;11.52;;;;;;;8.89;nan;102278.19;10339561;28;20033;-77
2023/09/30 01:48:11;;;;;;;25.60;12.60;;;;;;;8.80;nan;102266.22;10340596;28;20502;-77
2023/09/30 01:53:12;;;;;;;18.75;11.07;;;;;;;8.80;nan;102265.34;10355957;28;20037;-77
2023/09/30 01:58:12;;;;;;;24.60;13.30;;;;;;;8.69;nan;102277.53;10356693;28;20134;-77
2023/09/30 02:03:13;;;;;;;31.35;18.08;;;;;;;8.55;nan;102259.91;10359779;28;20459;-77
2023/09/30 02:08:13;;;;;;;24.73;13.13;;;;;;;8.49;nan;102261.25;10358261;28;20038;-77
2023/09/30 02:13:14;;;;;;;27.58;12.60;;;;;;;8.61;nan;102263.00;10357648;28;20517;-76
2023/09/30 02:18:14;;;;;;;32.13;14.27;;;;;;;8.61;nan;102265.59;10308442;28;20057;-76
2023/09/30 02:23:17;;;;;;;33.22;17.17;;;;;;;8.60;nan;102253.34;10318542;28;20050;-78
2023/09/30 02:28:17;;;;;;;29.08;12.35;;;;;;;8.61;nan;102257.75;10311029;28;20051;-77
2023/09/30 02:33:17;;;;;;;29.95;14.55;;;;;;;8.61;nan;102268.22;10323843;28;20388;-77
2023/09/30 02:38:20;;;;;;;33.78;15.40;;;;;;;8.54;nan;102273.72;10290695;28;20060;-77
2023/09/30 02:43:21;;;;;;;29.52;15.25;;;;;;;8.52;nan;102271.91;10387127;28;20041;-76
2023/09/30 02:48:21;;;;;;;35.53;16.13;;;;;;;8.48;nan;102274.16;10353686;28;20133;-76
2023/09/30 02:53:22;;;;;;;23.48;13.77;;;;;;;8.22;nan;102281.72;10372444;28;20038;-76
2023/09/30 02:58:24;;;;;;;25.73;13.73;;;;;;;7.99;nan;102265.91;10358224;28;20559;-77
2023/09/30 03:03:25;;;;;;;26.70;14.32;;;;;;;8.10;nan;102258.97;10354081;28;20057;-76
2023/09/30 03:08:26;;;;;;;20.70;13.30;;;;;;;8.20;nan;102257.19;10361610;28;20394;-77
2023/09/30 03:13:27;;;;;;;31.77;16.63;;;;;;;8.29;nan;102261.31;10344224;28;20284;-76
2023/09/30 03:18:28;;;;;;;31.90;15.88;;;;;;;8.38;nan;102267.28;10376636;28;20128;-76
2023/09/30 03:23:30;;;;;;;39.72;20.67;;;;;;;8.30;nan;102264.06;10376544;28;20048;-76
2023/09/30 03:28:31;;;;;;;38.92;21.13;;;;;;;8.17;nan;102272.59;10361836;28;20058;-80
2023/09/30 03:33:35;;;;;;;43.75;19.55;;;;;;;8.08;nan;102267.59;10343947;28;20064;-77
2023/09/30 03:38:36;;;;;;;35.20;17.05;;;;;;;8.01;nan;102260.06;10359787;28;20038;-76
2023/09/30 03:43:40;;;;;;;37.13;19.83;;;;;;;8.12;nan;102253.06;10362387;28;20116;-76
2023/09/30 03:48:42;;;;;;;39.45;19.42;;;;;;;8.12;nan;102233.94;10363338;28;20052;-75
2023/09/30 03:53:44;;;;;;;40.70;19.70;;;;;;;8.10;nan;102232.91;10358824;28;20092;-78
2023/09/30 03:58:48;;;;;;;42.53;19.20;;;;;;;8.01;nan;102233.97;10358236;28;20030;-78
2023/09/30 04:03:49;;;;;;;31.90;17.88;;;;;;;7.81;nan;102247.09;10343220;28;20430;-79
2023/09/30 04:08:50;;;;;;;43.78;18.45;;;;;;;7.73;nan;102247.41;10361676;28;20041;-77
2023/09/30 04:13:50;;;;;;;27.17;13.20;;;;;;;7.67;nan;102243.38;10359720;28;20397;-77
2023/09/30 04:18:51;;;;;;;24.27;13.60;;;;;;;7.38;nan;102244.47;10360141;28;20041;-76
2023/09/30 04:23:51;;;;;;;31.52;16.95;;;;;;;7.22;nan;102248.41;10359900;28;20129;-76
2023/09/30 04:28:53;;;;;;;53.70;17.98;;;;;;;7.18;nan;102268.09;10376239;28;20041;-76
2023/09/30 04:33:53;;;;;;;34.03;15.95;;;;;;;7.16;nan;102268.75;10360035;28;20117;-76
2023/09/30 04:38:54;;;;;;;33.30;15.95;;;;;;;7.43;nan;102253.59;10362132;28;20056;-76
2023/09/30 04:43:54;;;;;;;54.20;26.08;;;;;;;7.64;nan;102255.34;10339974;28;20141;-76
2023/09/30 04:48:55;;;;;;;50.58;25.50;;;;;;;7.81;nan;102258.44;10358058;28;20036;-76
2023/09/30 04:53:55;;;;;;;54.95;23.38;;;;;;;7.86;nan;102261.41;10353818;28;20034;-76
2023/09/30 04:58:56;;;;;;;52.80;24.17;;;;;;;7.84;nan;102271.72;10356185;28;20061;-76
2023/09/30 05:03:57;;;;;;;51.65;27.23;;;;;;;7.86;nan;102262.31;10358087;28;20200;-76
2023/09/30 05:08:57;;;;;;;61.58;25.52;;;;;;;7.78;nan;102264.31;10357356;28;20129;-76
2023/09/30 05:13:59;;;;;;;50.10;26.98;;;;;;;7.79;nan;102268.75;10325305;28;20042;-76
2023/09/30 05:18:59;;;;;;;52.17;25.50;;;;;;;7.79;nan;102273.03;10338863;28;20046;-76
2023/09/30 05:24:00;;;;;;;59.33;25.13;;;;;;;7.87;nan;102265.84;10359370;28;20042;-77
2023/09/30 05:29:00;;;;;;;53.97;23.77;;;;;;;7.92;nan;102273.25;10357519;28;20052;-75
2023/09/30 05:34:01;;;;;;;51.63;24.73;;;;;;;7.87;nan;102268.47;10355537;28;20069;-77
2023/09/30 05:39:03;;;;;;;47.75;22.23;;;;;;;7.58;nan;102285.22;10337115;28;20045;-77
2023/09/30 05:44:04;;;;;;;54.17;26.27;;;;;;;7.40;nan;102292.41;10341896;28;20125;-78
2023/09/30 05:49:09;;;;;;;40.17;23.38;;;;;;;7.30;nan;102304.66;10359703;28;20052;-78
2023/09/30 05:54:11;;;;;;;47.20;25.60;;;;;;;7.38;nan;102302.72;10358232;28;20478;-77
2023/09/30 05:59:13;;;;;;;47.75;22.73;;;;;;;7.51;nan;102298.53;10356832;28;20056;-77
2023/09/30 06:04:13;;;;;;;54.57;26.07;;;;;;;7.68;nan;102295.63;10359108;28;20137;-77
2023/09/30 06:09:14;;;;;;;54.60;25.42;;;;;;;7.82;nan;102294.13;10356738;28;20389;-77
2023/09/30 06:14:14;;;;;;;57.72;25.30;;;;;;;7.97;nan;102298.78;10357110;28;20054;-76
2023/09/30 06:19:15;;;;;;;61.22;28.98;;;;;;;8.08;nan;102306.69;10355688;28;20049;-76
2023/09/30 06:24:16;;;;;;;42.63;23.80;;;;;;;8.23;nan;102299.19;10341446;28;20044;-76
2023/09/30 06:29:17;;;;;;;59.85;25.10;;;;;;;8.39;nan;102295.19;10357664;28;20137;-76
2023/09/30 06:34:17;;;;;;;48.22;22.60;;;;;;;8.70;nan;102288.91;10358428;28;20141;-77
2023/09/30 06:39:18;;;;;;;44.75;25.70;;;;;;;8.98;nan;102291.94;10342856;28;20386;-77
2023/09/30 06:44:19;;;;;;;50.75;20.48;;;;;;;9.23;nan;102275.53;10363209;28;20487;-77
2023/09/30 06:49:20;;;;;;;57.00;23.00;;;;;;;9.95;nan;102277.34;10363779;28;20040;-77
2023/09/30 06:54:21;;;;;;;39.03;20.88;;;;;;;10.42;nan;102272.84;10347411;28;20034;-76
2023/09/30 06:59:21;;;;;;;26.05;15.45;;;;;;;10.96;nan;102280.91;10348561;28;20087;-77
2023/09/30 07:04:22;;;;;;;24.33;11.65;;;;;;;11.52;nan;102282.94;10362996;28;20542;-77
2023/09/30 07:09:22;;;;;;;19.65;11.35;;;;;;;11.39;nan;102290.81;10348575;28;20101;-77
2023/09/30 07:14:23;;;;;;;19.20;12.55;;;;;;;11.97;nan;102306.84;10364598;28;20033;-77
2023/09/30 07:19:23;;;;;;;18.67;11.98;;;;;;;12.43;nan;102323.75;10363245;28;20036;-77
2023/09/30 07:24:24;;;;;;;18.38;9.25;;;;;;;12.87;nan;102311.59;10363823;28;20117;-77
2023/09/30 07:29:24;;;;;;;19.40;10.73;;;;;;;13.13;nan;102283.38;10396359;28;20436;-77
2023/09/30 07:34:25;;;;;;;17.58;8.93;;;;;;;13.40;nan;102280.56;10361478;28;20038;-76
2023/09/30 07:39:25;;;;;;;19.27;9.52;;;;;;;13.35;nan;102282.91;10363024;28;20041;-76
2023/09/30 07:44:26;;;;;;;19.55;12.32;;;;;;;13.43;nan;102291.28;10364958;28;20038;-76
2023/09/30 07:49:27;;;;;;;17.83;11.65;;;;;;;13.53;nan;102293.66;10363928;28;20034;-77
2023/09/30 07:54:27;;;;;;;17.95;9.85;;;;;;;13.70;nan;102286.72;10363681;28;20452;-75
2023/09/30 07:59:28;;;;;;;14.50;9.43;;;;;;;13.72;nan;102295.59;10364389;28;20109;-76
2023/09/30 08:04:29;;;;;;;24.88;13.95;;;;;;;14.03;nan;102297.34;10364619;28;20125;-76
2023/09/30 08:09:30;;;;;;;21.67;15.90;;;;;;;14.39;nan;102300.22;10346748;28;20490;-76
2023/09/30 08:14:30;;;;;;;21.25;15.27;;;;;;;14.72;nan;102294.09;10365041;28;20065;-76
2023/09/30 08:19:32;;;;;;;23.20;15.60;;;;;;;14.90;nan;102291.53;10363487;28;20096;-76
2023/09/30 08:24:33;;;;;;;32.03;16.85;;;;;;;15.07;nan;102288.84;10361712;28;20560;-76
2023/09/30 08:29:35;;;;;;;23.80;15.65;;;;;;;15.34;nan;102293.75;10363471;28;20099;-76
2023/09/30 08:34:36;;;;;;;22.25;15.98;;;;;;;15.47;nan;102293.53;10361940;28;20092;-76
2023/09/30 08:39:40;;;;;;;23.17;15.52;;;;;;;15.71;nan;102293.88;10361517;28;20135;-76
2023/09/30 08:44:40;;;;;;;28.50;17.08;;;;;;;15.76;nan;102301.09;10360531;28;20052;-76
2023/09/30 08:49:41;;;;;;;25.95;15.05;;;;;;;16.03;nan;102316.53;10360695;28;20030;-76
2023/09/30 08:54:42;;;;;;;26.17;15.52;;;;;;;16.11;nan;102304.59;10359322;28;20053;-77
2023/09/30 08:59:42;;;;;;;27.17;14.80;;;;;;;16.10;nan;102298.38;10360371;28;20056;-77
2023/09/30 09:04:43;;;;;;;22.63;13.30;;;;;;;16.34;nan;102300.38;10392059;28;20127;-76
2023/09/30 09:10:02;;;;;;;19.38;13.52;;;;;;;16.87;nan;102295.75;10360595;28;20541;-77
2023/09/30 09:15:07;;;;;;;24.52;16.33;;;;;;;16.69;nan;102292.28;10373513;28;20038;-76
2023/09/30 09:20:10;;;;;;;20.95;14.05;;;;;;;16.96;nan;102303.16;10359192;28;20053;-76
2023/09/30 09:25:11;;;;;;;23.80;14.15;;;;;;;17.48;nan;102316.00;10361548;28;20129;-76
2023/09/30 09:30:24;;;;;;;20.40;13.93;;;;;;;18.00;nan;102322.56;10356107;28;20041;-76
2023/09/30 09:35:27;;;;;;;17.85;13.00;;;;;;;18.54;nan;102335.25;10359789;28;20062;-77
2023/09/30 09:40:29;;;;;;;21.65;14.07;;;;;;;18.49;nan;102355.41;10362350;28;20069;-77
2023/09/30 09:45:32;;;;;;;25.83;15.88;;;;;;;18.98;nan;102371.38;10358400;28;20041;-77
2023/09/30 09:50:33;;;;;;;19.05;14.68;;;;;;;20.86;nan;102396.19;10359069;28;20482;-76
2023/09/30 09:55:33;;;;;;;21.60;16.20;;;;;;;22.75;nan;102417.00;10343107;28;20042;-77
2023/09/30 10:00:34;;;;;;;17.70;12.93;;;;;;;24.48;nan;102454.06;10358413;28;20048;-77
2023/09/30 10:05:34;;;;;;;21.73;15.63;;;;;;;24.63;nan;102473.91;10342898;28;20125;-75
2023/09/30 10:10:36;;;;;;;18.60;15.13;;;;;;;24.54;nan;102474.66;10342794;28;20038;-77
2023/09/30 10:15:37;;;;;;;17.27;14.07;;;;;;;25.09;nan;102476.31;10363332;28;20069;-76
2023/09/30 10:20:44;;;;;;;19.00;14.80;;;;;;;25.56;nan;102485.84;10366674;28;20364;-77
2023/09/30 10:25:49;;;;;;;16.48;11.95;;;;;;;25.86;nan;102491.47;10362263;28;20041;-76
2023/09/30 10:31:08;;;;;;;17.98;13.68;;;;;;;25.57;nan;102508.16;10362967;28;20034;-76
2023/09/30 10:36:08;;;;;;;16.92;11.60;;;;;;;25.80;nan;102498.56;10365254;28;20061;-76
2023/09/30 10:41:09;;;;;;;18.40;13.20;;;;;;;26.01;nan;102517.56;10322825;28;20114;-76
2023/09/30 10:46:28;;;;;;;16.17;12.40;;;;;;;27.14;nan;102488.81;10326456;28;20445;-75
2023/09/30 10:51:28;;;;;;;16.92;13.00;;;;;;;27.53;nan;102491.69;10327100;28;20043;-75
2023/09/30 10:56:32;;;;;;;21.80;14.33;;;;;;;26.07;nan;102493.47;10379310;28;20059;-76
2023/09/30 11:01:36;;;;;;;18.63;13.40;;;;;;;26.05;nan;102479.16;10348798;28;20077;-75
2023/09/30 11:06:40;;;;;;;18.50;14.45;;;;;;;26.34;nan;102470.47;10365957;28;20076;-76
2023/09/30 11:11:51;;;;;;;18.27;12.55;;;;;;;26.75;nan;102464.44;10349567;28;20456;-76
2023/09/30 11:16:52;;;;;;;20.08;12.68;;;;;;;27.70;nan;102460.34;10360563;28;20038;-76
2023/09/30 11:21:53;;;;;;;;;;;;;;;25.94;nan;102454.91;10363740;28;20037;-76
2023/09/30 11:26:53;;;;;;;16.55;11.10;;;;;;;25.85;nan;102462.88;10363347;28;19917;-77
2023/09/30 11:31:55;;;;;;;14.20;11.10;;;;;;;26.09;nan;102446.97;10361967;28;20053;-75
2023/09/30 11:36:56;;;;;;;13.13;9.70;;;;;;;25.98;nan;102454.03;10363276;28;20561;-76
2023/09/30 11:41:57;;;;;;;20.88;10.30;;;;;;;25.72;nan;102446.66;10363060;28;20042;-76
2023/09/30 11:47:05;;;;;;;18.80;10.47;;;;;;;21.85;nan;102436.19;10361481;28;20042;-76
2023/09/30 11:52:13;;;;;;;24.80;13.98;;;;;;;22.35;nan;102422.31;10363655;28;20045;-76
2023/09/30 11:57:18;;;;;;;12.50;8.77;;;;;;;20.54;nan;102376.59;10360838;28;20437;-75
2023/09/30 12:02:18;;;;;;;14.45;9.88;;;;;;;19.37;nan;102342.72;10362930;28;20042;-76
2023/09/30 12:07:19;;;;;;;18.63;9.57;;;;;;;19.05;nan;102350.44;10379317;28;20042;-76
2023/09/30 12:12:20;;;;;;;10.93;7.37;;;;;;;20.42;nan;102389.53;10360912;28;20042;-76
2023/09/30 12:17:22;;;;;;;8.10;5.47;;;;;;;21.39;nan;102401.22;10360111;28;20043;-76
2023/09/30 12:22:22;;;;;;;11.07;6.32;;;;;;;21.88;nan;102380.31;10360890;28;20072;-76
2023/09/30 12:27:23;;;;;;;9.03;5.07;;;;;;;23.52;nan;102401.66;10360165;28;20117;-76
2023/09/30 12:32:26;;;;;;;8.55;4.47;;;;;;;22.93;nan;102420.94;10359487;28;20172;-76
2023/09/30 12:37:27;;;;;;;7.53;4.80;;;;;;;23.56;nan;102413.28;10361672;28;20045;-76
2023/09/30 12:42:28;;;;;;;8.57;5.50;;;;;;;24.39;nan;102427.16;10362404;28;20033;-76
2023/09/30 12:47:28;;;;;;;9.90;6.73;;;;;;;24.39;nan;102415.56;10343393;28;20096;-76
2023/09/30 12:52:30;;;;;;;12.27;7.70;;;;;;;23.86;nan;102396.91;10360297;28;20131;-77
2023/09/30 12:57:31;;;;;;;7.82;5.28;;;;;;;23.89;nan;102391.59;10359172;28;20042;-76
2023/09/30 13:02:32;;;;;;;9.23;5.73;;;;;;;23.47;nan;102379.31;10360575;28;20072;-76
2023/09/30 13:07:33;;;;;;;10.48;5.82;;;;;;;23.14;nan;102380.44;10359876;28;20309;-76
2023/09/30 13:12:33;;;;;;;11.20;6.57;;;;;;;23.52;nan;102384.72;10362130;28;20133;-76
2023/09/30 13:17:34;;;;;;;11.73;6.27;;;;;;;22.37;nan;102375.25;10361246;28;20042;-77
2023/09/30 13:22:38;;;;;;;8.13;6.00;;;;;;;21.20;nan;102379.44;10343610;28;20052;-76
2023/09/30 13:27:40;;;;;;;10.98;6.18;;;;;;;20.07;nan;102355.69;10358051;28;20490;-76
2023/09/30 13:32:40;;;;;;;21.47;7.13;;;;;;;19.58;nan;102336.31;10343461;28;20390;-76
2023/09/30 13:37:41;;;;;;;10.27;5.63;;;;;;;19.70;nan;102333.19;10358839;28;20057;-76
2023/09/30 13:42:41;;;;;;;12.43;5.50;;;;;;;19.56;nan;102337.13;10360096;28;20389;-76
2023/09/30 13:47:43;;;;;;;9.60;5.30;;;;;;;19.50;nan;102327.19;10360294;28;20129;-76
2023/09/30 13:52:43;;;;;;;7.03;5.37;;;;;;;19.59;nan;102327.50;10358389;28;20046;-76
2023/09/30 13:57:47;;;;;;;9.25;4.53;;;;;;;19.49;nan;102331.63;10358712;28;20839;-76
2023/09/30 14:02:48;;;;;;;6.72;4.10;;;;;;;19.35;nan;102332.91;10334872;28;20149;-76
2023/09/30 14:07:48;;;;;;;7.07;3.63;;;;;;;19.18;nan;102301.38;10306128;28;20041;-76
2023/09/30 14:12:49;;;;;;;11.75;4.95;;;;;;;19.31;nan;102305.34;10277629;28;20059;-76
2023/09/30 14:17:49;;;;;;;9.52;4.57;;;;;;;19.86;nan;102313.34;10280162;28;20061;-76
2023/09/30 14:22:51;;;;;;;7.30;3.63;;;;;;;20.50;nan;102328.63;10279153;28;20073;-76
2023/09/30 14:27:52;;;;;;;10.85;4.25;;;;;;;20.72;nan;102324.81;10309584;28;20054;-75
2023/09/30 14:32:54;;;;;;;10.82;4.30;;;;;;;20.85;nan;102319.88;10350284;28;20063;-76
2023/09/30 14:37:54;;;;;;;8.15;4.18;;;;;;;20.38;nan;102313.19;10318312;28;20501;-76
2023/09/30 14:42:55;;;;;;;6.32;4.50;;;;;;;19.73;nan;102304.06;10349153;28;20041;-75
2023/09/30 14:47:56;;;;;;;7.70;4.57;;;;;;;19.39;nan;102295.00;10349498;28;20041;-76
2023/09/30 14:52:56;;;;;;;8.00;4.60;;;;;;;19.19;nan;102283.69;10318938;28;20046;-75
2023/09/30 14:57:57;;;;;;;17.45;4.55;;;;;;;18.86;nan;102266.59;10349682;28;20109;-76
2023/09/30 15:02:57;;;;;;;8.63;4.63;;;;;;;18.51;nan;102260.94;10323337;28;20049;-75
2023/09/30 15:08:01;;;;;;;7.00;3.63;;;;;;;18.02;nan;102247.63;10326924;28;20491;-75
2023/09/30 15:13:01;;;;;;;6.93;4.18;;;;;;;17.64;nan;102251.34;10397263;28;20046;-75
2023/09/30 15:18:02;;;;;;;6.32;3.45;;;;;;;17.34;nan;102230.72;10380863;28;20065;-75
2023/09/30 15:23:04;;;;;;;9.48;4.55;;;;;;;17.20;nan;102204.59;10362942;28;20069;-74
2023/09/30 15:28:05;;;;;;;17.27;8.50;;;;;;;16.99;nan;102200.19;10375697;28;20050;-77
2023/09/30 15:33:05;;;;;;;7.90;5.10;;;;;;;16.90;nan;102194.47;10365463;28;20030;-75
2023/09/30 15:38:06;;;;;;;10.25;4.82;;;;;;;16.72;nan;102197.25;10364452;28;20042;-74
2023/09/30 15:43:06;;;;;;;8.30;3.63;;;;;;;16.57;nan;102187.81;10365254;28;20461;-75
2023/09/30 15:48:07;;;;;;;6.72;4.07;;;;;;;16.27;nan;102200.53;10361950;28;20042;-76
2023/09/30 15:53:07;;;;;;;9.25;4.88;;;;;;;15.98;nan;102208.03;10363177;28;20048;-76
2023/09/30 15:58:08;;;;;;;8.38;4.63;;;;;;;15.67;nan;102190.69;10362404;28;20049;-75
2023/09/30 16:03:09;;;;;;;8.63;4.97;;;;;;;15.45;nan;102175.59;10360931;28;20049;-75
2023/09/30 16:08:09;;;;;;;9.95;5.10;;;;;;;15.31;nan;102181.09;10344936;28;20482;-76
2023/09/30 16:13:10;;;;;;;8.80;4.88;;;;;;;15.22;nan;102192.06;10362951;28;20042;-76
2023/09/30 16:18:10;;;;;;;8.25;4.97;;;;;;;15.00;nan;102205.94;10360955;28;20168;-75
2023/09/30 16:23:11;;;;;;;13.52;4.18;;;;;;;14.73;nan;102208.94;10362842;28;20034;-75
2023/09/30 16:28:11;;;;;;;8.48;4.95;;;;;;;14.46;nan;102205.72;10362769;28;20103;-75
2023/09/30 16:33:13;;;;;;;11.70;5.05;;;;;;;14.29;nan;102210.09;10359963;28;20038;-75
2023/09/30 16:38:13;;;;;;;8.57;4.93;;;;;;;14.16;nan;102201.53;10361996;28;20033;-76
2023/09/30 16:43:14;;;;;;;11.38;5.43;;;;;;;13.88;nan;102214.91;10378997;28;20089;-75
2023/09/30 16:48:15;;;;;;;10.40;5.50;;;;;;;13.63;nan;102213.53;10363427;28;20482;-76
2023/09/30 16:53:16;;;;;;;7.88;5.82;;;;;;;13.31;nan;102213.47;10359320;28;20048;-75
2023/09/30 16:58:17;;;;;;;11.52;6.25;;;;;;;13.02;nan;102210.03;10344734;28;20038;-75
2023/09/30 17:03:18;;;;;;;13.93;5.75;;;;;;;12.73;nan;102224.03;10347094;28;20449;-78
2023/09/30 17:08:18;;;;;;;9.45;6.40;;;;;;;12.42;nan;102223.09;10359871;28;20041;-76
2023/09/30 17:13:20;;;;;;;9.73;5.13;;;;;;;12.10;nan;102227.25;10365258;28;20061;-76
2023/09/30 17:18:21;;;;;;;13.93;7.40;;;;;;;11.92;nan;102239.16;10356500;28;20069;-76
2023/09/30 17:23:22;;;;;;;11.55;6.63;;;;;;;11.78;nan;102235.63;10357236;28;20037;-76
2023/09/30 17:28:24;;;;;;;15.20;7.65;;;;;;;11.70;nan;102237.78;10369436;28;20042;-77
2023/09/30 17:33:25;;;;;;;11.02;6.18;;;;;;;11.59;nan;102248.47;10354922;28;20121;-75
2023/09/30 17:38:26;;;;;;;10.95;7.25;;;;;;;11.46;nan;102246.72;10354172;28;20129;-75
2023/09/30 17:43:29;;;;;;;11.60;7.00;;;;;;;11.34;nan;102256.41;10386320;28;20045;-76
2023/09/30 17:48:30;;;;;;;13.13;7.22;;;;;;;11.19;nan;102247.50;10359420;28;20498;-74
2023/09/30 17:53:30;;;;;;;11.35;6.95;;;;;;;11.07;nan;102245.88;10359762;28;20069;-75
2023/09/30 17:58:31;;;;;;;16.83;6.68;;;;;;;10.96;nan;102237.31;10360425;28;20060;-74
2023/09/30 18:03:31;;;;;;;14.95;7.82;;;;;;;10.94;nan;102243.22;10356303;28;20248;-75
2023/09/30 18:08:32;;;;;;;12.48;8.18;;;;;;;10.79;nan;102251.84;10358052;28;20525;-75
2023/09/30 18:13:32;;;;;;;11.27;7.75;;;;;;;10.71;nan;102250.41;10359680;28;20133;-75
2023/09/30 18:18:33;;;;;;;9.23;6.10;;;;;;;10.60;nan;102252.31;10390645;28;20156;-75
2023/09/30 18:23:34;;;;;;;14.82;7.00;;;;;;;10.59;nan;102247.88;10341231;28;20042;-75
2023/09/30 18:28:34;;;;;;;14.98;7.75;;;;;;;10.49;nan;102238.44;10358532;28;20042;-75
2023/09/30 18:33:35;;;;;;;15.30;7.10;;;;;;;10.40;nan;102249.19;10356161;28;20117;-75
2023/09/30 18:38:37;;;;;;;13.82;7.57;;;;;;;10.29;nan;102252.72;10397304;28;20042;-75
2023/09/30 18:43:37;;;;;;;12.38;6.95;;;;;;;10.33;nan;102248.59;10364283;28;20379;-75
2023/09/30 18:48:41;;;;;;;11.43;6.97;;;;;;;10.37;nan;102251.56;10398190;28;20042;-74
2023/09/30 18:53:42;;;;;;;15.68;7.22;;;;;;;10.38;nan;102231.53;10364972;28;20069;-76
2023/09/30 18:58:42;;;;;;;12.32;6.90;;;;;;;10.43;nan;102238.03;10361510;28;20065;-75
2023/09/30 19:03:43;;;;;;;13.02;8.82;;;;;;;10.50;nan;102236.75;10362193;28;20385;-75
2023/09/30 19:08:43;;;;;;;14.95;7.72;;;;;;;10.55;nan;102224.91;10364885;28;20042;-75
2023/09/30 19:13:44;;;;;;;15.90;8.10;;;;;;;10.63;nan;102214.94;10361800;28;20045;-76
2023/09/30 19:18:45;;;;;;;10.55;6.78;;;;;;;10.71;nan;102203.28;10323991;28;20087;-76
2023/09/30 19:23:45;;;;;;;11.27;7.20;;;;;;;10.78;nan;102202.91;10322510;28;20037;-76
2023/09/30 19:28:46;;;;;;;15.15;9.68;;;;;;;10.85;nan;102209.47;10365679;28;20131;-76
2023/09/30 19:33:46;;;;;;;12.43;7.25;;;;;;;10.83;nan;102214.59;10365209;28;20040;-76
2023/09/30 19:38:47;;;;;;;24.42;11.93;;;;;;;10.77;nan;102214.19;10363055;28;20512;-75
2023/09/30 19:43:48;;;;;;;15.32;11.52;;;;;;;10.53;nan;102208.19;10364799;28;20070;-76
2023/09/30 19:48:49;;;;;;;24.17;13.15;;;;;;;10.39;nan;102202.88;10358528;28;20072;-78
2023/09/30 19:53:50;;;;;;;17.57;11.63;;;;;;;10.38;nan;102200.13;10362207;28;20379;-76
2023/09/30 19:58:51;;;;;;;16.30;10.93;;;;;;;10.22;nan;102213.84;10361164;28;20038;-77
2023/09/30 20:03:52;;;;;;;18.92;13.38;;;;;;;10.03;nan;102209.00;10363188;28;20048;-76
2023/09/30 20:08:53;;;;;;;22.13;12.32;;;;;;;9.80;nan;102200.41;10362734;28;20490;-76
2023/09/30 20:13:55;;;;;;;17.30;11.35;;;;;;;9.72;nan;102206.78;10343867;28;20049;-77
2023/09/30 20:18:56;;;;;;;18.75;11.00;;;;;;;9.66;nan;102210.78;10341293;28;20038;-76
2023/09/30 20:24:02;;;;;;;21.20;14.13;;;;;;;9.70;nan;102218.03;10344328;28;20478;-77
2023/09/30 20:29:04;;;;;;;30.08;16.00;;;;;;;9.70;nan;102225.88;10379604;28;20037;-78
2023/09/30 20:34:08;;;;;;;;;;;;;;;9.70;nan;102233.72;10375594;28;20113;-78
2023/09/30 20:39:10;;;;;;;26.27;13.88;;;;;;;9.64;nan;102232.38;10355906;28;20392;-78
2023/09/30 20:44:12;;;;;;;26.77;15.57;;;;;;;9.64;nan;102229.78;10358013;28;20042;-78
2023/09/30 20:49:13;;;;;;;25.40;15.10;;;;;;;9.54;nan;102229.09;10361777;28;20048;-78
2023/09/30 20:54:13;;;;;;;23.50;14.48;;;;;;;9.46;nan;102226.69;10368809;28;20474;-78
2023/09/30 20:59:14;;;;;;;25.08;16.40;;;;;;;9.48;nan;102227.72;10357183;28;20076;-78
2023/09/30 21:04:15;;;;;;;24.77;15.10;;;;;;;9.42;nan;102220.34;10344415;28;20041;-78
2023/09/30 21:09:17;;;;;;;27.70;18.73;;;;;;;9.39;nan;102213.19;10374379;28;20049;-78
2023/09/30 21:14:17;;;;;;;36.90;15.35;;;;;;;9.35;nan;102213.75;10344818;28;20057;-78
2023/09/30 21:19:18;;;;;;;28.83;17.02;;;;;;;9.30;nan;102214.22;10369419;28;20536;-78
2023/09/30 21:24:19;;;;;;;33.10;19.15;;;;;;;9.28;nan;102213.19;10352197;28;20056;-78
2023/09/30 21:29:20;;;;;;;29.97;19.90;;;;;;;9.27;nan;102224.44;10367746;28;20108;-77
2023/09/30 21:34:21;;;;;;;32.97;17.65;;;;;;;9.15;nan;102224.41;10336009;28;20166;-77
2023/09/30 21:39:21;;;;;;;25.45;17.13;;;;;;;9.00;nan;102226.78;10321076;28;20116;-78
2023/09/30 21:44:22;;;;;;;23.13;12.68;;;;;;;8.75;nan;102228.44;10321089;28;20123;-79
2023/09/30 21:49:23;;;;;;;25.30;16.45;;;;;;;8.73;nan;102221.28;10343593;28;20076;-79
2023/09/30 21:54:23;;;;;;;28.20;18.77;;;;;;;8.94;nan;102224.59;10325720;28;20034;-79
2023/09/30 21:59:24;;;;;;;29.20;17.98;;;;;;;9.09;nan;102223.16;10365919;28;20065;-78
2023/09/30 22:04:24;;;;;;;29.33;21.02;;;;;;;9.23;nan;102229.44;10361244;28;20045;-78
2023/09/30 22:09:25;;;;;;;29.25;19.73;;;;;;;9.42;nan;102219.44;10369322;28;20037;-77
2023/09/30 22:14:25;;;;;;;35.35;21.10;;;;;;;9.44;nan;102208.31;10373743;28;20116;-78
2023/09/30 22:19:26;;;;;;;33.25;20.10;;;;;;;9.40;nan;102203.66;10344577;28;20103;-77
2023/09/30 22:24:27;;;;;;;32.85;20.45;;;;;;;9.35;nan;102192.84;10350258;28;20119;-78
2023/09/30 22:29:27;;;;;;;34.92;20.70;;;;;;;9.21;nan;102184.00;10382058;28;20041;-78
2023/09/30 22:34:28;;;;;;;36.40;21.05;;;;;;;9.10;nan;102182.28;10375338;28;20049;-78
2023/09/30 22:39:28;;;;;;;36.88;19.95;;;;;;;9.00;nan;102185.91;10376391;28;20490;-79
2023/09/30 22:44:31;;;;;;;38.63;20.52;;;;;;;9.01;nan;102192.94;10401399;28;20058;-78
2023/09/30 22:49:31;;;;;;;;;;;;;;;9.00;nan;102190.22;10372140;28;20052;-79
2023/09/30 22:54:33;;;;;;;29.98;19.95;;;;;;;8.98;nan;102191.81;10395078;28;19927;-78
2023/09/30 22:59:34;;;;;;;37.88;20.13;;;;;;;8.89;nan;102192.03;10387975;28;20137;-78
2023/09/30 23:04:36;;;;;;;37.53;22.42;;;;;;;8.92;nan;102190.56;10387067;28;20041;-78
2023/09/30 23:09:36;;;;;;;44.08;21.83;;;;;;;8.94;nan;102186.38;10365530;28;20375;-78
2023/09/30 23:14:37;;;;;;;37.50;24.75;;;;;;;8.88;nan;102178.06;10373381;28;20149;-78
2023/09/30 23:19:37;;;;;;;36.90;23.88;;;;;;;8.74;nan;102179.63;10374283;28;20054;-78
2023/09/30 23:24:38;;;;;;;34.47;21.95;;;;;;;8.64;nan;102188.47;10373607;28;20077;-78